sensor_id;sensor_type;location;lat;lon;timestamp;temperature;humidity
6788;DHT22;3431;47.966;10.268;2023-03-14T00:00:00;8.70;99.90
6788;DHT22;3431;47.966;10.268;2023-03-14T00:00:26;8.70;99.90
6788;DHT22;3431;47.966;10.268;2023-03-14T00:00:48;8.70;99.90
6788;DHT22;3431;47.966;10.268;2023-03-14T00:01:11;8.70;99.90
6788;DHT22;3431;47.966;10.268;2023-03-14T00:01:34;8.70;99.90
6788;DHT22;3431;47.966;10.268;2023-03-14T00:01:56;8.70;99.90
6788;DHT22;3431;47.966;10.268;2023-03-14T00:02:17;8.70;99.90
6788;DHT22;3431;47.966;10.268;2023-03-14T00:02:39;8.70;99.90
6788;DHT22;3431;47.966;10.268;2023-03-14T00:03:01;8.70;99.90
6788;DHT22;3431;47.966;10.268;2023-03-14T00:03:23;8.70;99.90
6788;DHT22;3431;47.966;10.268;2023-03-14T00:03:45;8.70;99.90
6788;DHT22;3431;47.966;10.268;2023-03-14T00:04:08;8.60;99.90
6788;DHT22;3431;47.966;10.268;2023-03-14T00:04:29;8.70;99.90
6788;DHT22;3431;47.966;10.268;2023-03-14T00:04:54;8.60;99.90
6788;DHT22;3431;47.966;10.268;2023-03-14T00:05:16;8.70;99.90
6788;DHT22;3431;47.966;10.268;2023-03-14T00:05:38;8.60;99.90
6788;DHT22;3431;47.966;10.268;2023-03-14T00:06:02;8.60;99.90
6788;DHT22;3431;47.966;10.268;2023-03-14T00:06:25;8.70;99.90
6788;DHT22;3431;47.966;10.268;2023-03-14T00:06:47;8.60;99.90
6788;DHT22;3431;47.966;10.268;2023-03-14T00:07:10;8.70;99.90
6788;DHT22;3431;47.966;10.268;2023-03-14T00:07:33;8.70;99.90
6788;DHT22;3431;47.966;10.268;2023-03-14T00:07:56;8.70;99.90
6788;DHT22;3431;47.966;10.268;2023-03-14T00:08:18;8.70;99.90
6788;DHT22;3431;47.966;10.268;2023-03-14T00:08:43;8.70;99.90
6788;DHT22;3431;47.966;10.268;2023-03-14T00:09:05;8.70;99.90
6788;DHT22;3431;47.966;10.268;2023-03-14T00:09:26;8.70;99.90
6788;DHT22;3431;47.966;10.268;2023-03-14T00:09:51;8.70;99.90
6788;DHT22;3431;47.966;10.268;2023-03-14T00:10:14;8.70;99.90
6788;DHT22;3431;47.966;10.268;2023-03-14T00:10:36;8.70;99.90
6788;DHT22;3431;47.966;10.268;2023-03-14T00:11:03;8.70;99.90
6788;DHT22;3431;47.966;10.268;2023-03-14T00:11:26;8.70;99.90
6788;DHT22;3431;47.966;10.268;2023-03-14T00:11:47;8.80;99.90
6788;DHT22;3431;47.966;10.268;2023-03-14T00:12:09;8.80;99.90
6788;DHT22;3431;47.966;10.268;2023-03-14T00:12:31;8.80;99.90
6788;DHT22;3431;47.966;10.268;2023-03-14T00:12:54;8.80;99.90
6788;DHT22;3431;47.966;10.268;2023-03-14T00:13:15;8.80;99.90
6788;DHT22;3431;47.966;10.268;2023-03-14T00:13:37;8.80;99.90
6788;DHT22;3431;47.966;10.268;2023-03-14T00:13:59;8.80;99.90
6788;DHT22;3431;47.966;10.268;2023-03-14T00:14:21;8.80;99.90
6788;DHT22;3431;47.966;10.268;2023-03-14T00:14:43;8.80;99.90
6788;DHT22;3431;47.966;10.268;2023-03-14T00:15:06;8.80;99.90
6788;DHT22;3431;47.966;10.268;2023-03-14T00:15:28;8.80;99.90
6788;DHT22;3431;47.966;10.268;2023-03-14T00:15:50;8.80;99.90
6788;DHT22;3431;47.966;10.268;2023-03-14T00:16:12;8.80;99.90
6788;DHT22;3431;47.966;10.268;2023-03-14T00:16:34;8.90;99.90
6788;DHT22;3431;47.966;10.268;2023-03-14T00:16:55;8.90;99.90
6788;DHT22;3431;47.966;10.268;2023-03-14T00:17:17;8.90;99.90
6788;DHT22;3431;47.966;10.268;2023-03-14T00:17:38;8.90;99.90
6788;DHT22;3431;47.966;10.268;2023-03-14T00:18:02;8.90;99.90
6788;DHT22;3431;47.966;10.268;2023-03-14T00:18:23;8.90;99.90
6788;DHT22;3431;47.966;10.268;2023-03-14T00:18:45;8.90;99.90
6788;DHT22;3431;47.966;10.268;2023-03-14T00:19:08;8.90;99.90
6788;DHT22;3431;47.966;10.268;2023-03-14T00:19:30;8.90;99.90
6788;DHT22;3431;47.966;10.268;2023-03-14T00:19:52;8.90;99.90
6788;DHT22;3431;47.966;10.268;2023-03-14T00:20:15;8.90;99.90
6788;DHT22;3431;47.966;10.268;2023-03-14T00:20:36;8.90;99.90
6788;DHT22;3431;47.966;10.268;2023-03-14T00:20:59;8.90;99.90
6788;DHT22;3431;47.966;10.268;2023-03-14T00:21:21;8.80;99.90
6788;DHT22;3431;47.966;10.268;2023-03-14T00:21:42;8.80;99.90
6788;DHT22;3431;47.966;10.268;2023-03-14T00:22:04;8.80;99.90
6788;DHT22;3431;47.966;10.268;2023-03-14T00:22:26;8.80;99.90
6788;DHT22;3431;47.966;10.268;2023-03-14T00:22:48;8.80;99.90
6788;DHT22;3431;47.966;10.268;2023-03-14T00:23:09;8.80;99.90
6788;DHT22;3431;47.966;10.268;2023-03-14T00:23:32;8.90;99.90
6788;DHT22;3431;47.966;10.268;2023-03-14T00:23:55;8.90;99.90
6788;DHT22;3431;47.966;10.268;2023-03-14T00:24:17;8.80;99.90
6788;DHT22;3431;47.966;10.268;2023-03-14T00:24:38;8.80;99.90
6788;DHT22;3431;47.966;10.268;2023-03-14T00:25:01;8.90;99.90
6788;DHT22;3431;47.966;10.268;2023-03-14T00:25:23;8.90;99.90
6788;DHT22;3431;47.966;10.268;2023-03-14T00:25:44;8.80;99.90
6788;DHT22;3431;47.966;10.268;2023-03-14T00:26:08;8.80;99.90
6788;DHT22;3431;47.966;10.268;2023-03-14T00:26:30;8.80;99.90
6788;DHT22;3431;47.966;10.268;2023-03-14T00:26:52;8.80;99.90
6788;DHT22;3431;47.966;10.268;2023-03-14T00:27:13;8.80;99.90
6788;DHT22;3431;47.966;10.268;2023-03-14T00:27:35;8.80;99.90
6788;DHT22;3431;47.966;10.268;2023-03-14T00:27:57;8.80;99.90
6788;DHT22;3431;47.966;10.268;2023-03-14T00:28:20;8.80;99.90
6788;DHT22;3431;47.966;10.268;2023-03-14T00:28:43;8.80;99.90
6788;DHT22;3431;47.966;10.268;2023-03-14T00:29:05;8.90;99.90
6788;DHT22;3431;47.966;10.268;2023-03-14T00:29:26;8.90;99.90
6788;DHT22;3431;47.966;10.268;2023-03-14T00:29:48;8.80;99.90
6788;DHT22;3431;47.966;10.268;2023-03-14T00:30:11;8.80;99.90
6788;DHT22;3431;47.966;10.268;2023-03-14T00:30:32;8.80;99.90
6788;DHT22;3431;47.966;10.268;2023-03-14T00:30:54;8.80;99.90
6788;DHT22;3431;47.966;10.268;2023-03-14T00:31:15;8.80;99.90
6788;DHT22;3431;47.966;10.268;2023-03-14T00:31:38;8.80;99.90
6788;DHT22;3431;47.966;10.268;2023-03-14T00:32:04;8.80;99.90
6788;DHT22;3431;47.966;10.268;2023-03-14T00:32:25;8.80;99.90
6788;DHT22;3431;47.966;10.268;2023-03-14T00:32:47;8.80;99.90
6788;DHT22;3431;47.966;10.268;2023-03-14T00:33:10;8.80;99.90
6788;DHT22;3431;47.966;10.268;2023-03-14T00:33:31;8.80;99.90
6788;DHT22;3431;47.966;10.268;2023-03-14T00:33:53;8.80;99.90
6788;DHT22;3431;47.966;10.268;2023-03-14T00:34:16;8.80;99.90
6788;DHT22;3431;47.966;10.268;2023-03-14T00:34:39;8.80;99.90
6788;DHT22;3431;47.966;10.268;2023-03-14T00:35:01;8.80;99.90
6788;DHT22;3431;47.966;10.268;2023-03-14T00:35:24;8.70;99.90
6788;DHT22;3431;47.966;10.268;2023-03-14T00:35:53;8.80;99.90
6788;DHT22;3431;47.966;10.268;2023-03-14T00:36:16;8.70;99.90
6788;DHT22;3431;47.966;10.268;2023-03-14T00:36:39;8.70;99.90
6788;DHT22;3431;47.966;10.268;2023-03-14T00:37:01;8.70;99.90
6788;DHT22;3431;47.966;10.268;2023-03-14T00:37:23;8.70;99.90
6788;DHT22;3431;47.966;10.268;2023-03-14T00:37:45;8.70;99.90
6788;DHT22;3431;47.966;10.268;2023-03-14T00:38:06;8.70;99.90
6788;DHT22;3431;47.966;10.268;2023-03-14T00:38:29;8.70;99.90
6788;DHT22;3431;47.966;10.268;2023-03-14T00:38:52;8.70;99.90
6788;DHT22;3431;47.966;10.268;2023-03-14T00:39:14;8.60;99.90
6788;DHT22;3431;47.966;10.268;2023-03-14T00:39:36;8.60;99.90
6788;DHT22;3431;47.966;10.268;2023-03-14T00:39:57;8.60;99.90
6788;DHT22;3431;47.966;10.268;2023-03-14T00:40:20;8.60;99.90
6788;DHT22;3431;47.966;10.268;2023-03-14T00:40:44;8.60;99.90
6788;DHT22;3431;47.966;10.268;2023-03-14T00:41:07;8.60;99.90
6788;DHT22;3431;47.966;10.268;2023-03-14T00:41:28;8.60;99.90
6788;DHT22;3431;47.966;10.268;2023-03-14T00:41:51;8.60;99.90
6788;DHT22;3431;47.966;10.268;2023-03-14T00:42:13;8.60;99.90
6788;DHT22;3431;47.966;10.268;2023-03-14T00:42:34;8.60;99.90
6788;DHT22;3431;47.966;10.268;2023-03-14T00:42:56;8.60;99.90
6788;DHT22;3431;47.966;10.268;2023-03-14T00:43:19;8.50;99.90
6788;DHT22;3431;47.966;10.268;2023-03-14T00:43:43;8.50;99.90
6788;DHT22;3431;47.966;10.268;2023-03-14T00:44:05;8.50;99.90
6788;DHT22;3431;47.966;10.268;2023-03-14T00:44:26;8.50;99.90
6788;DHT22;3431;47.966;10.268;2023-03-14T00:44:49;8.50;99.90
6788;DHT22;3431;47.966;10.268;2023-03-14T00:45:10;8.50;99.90
6788;DHT22;3431;47.966;10.268;2023-03-14T00:45:32;8.50;99.90
6788;DHT22;3431;47.966;10.268;2023-03-14T00:45:55;8.50;99.90
6788;DHT22;3431;47.966;10.268;2023-03-14T00:46:21;8.40;99.90
6788;DHT22;3431;47.966;10.268;2023-03-14T00:46:43;8.50;99.90
6788;DHT22;3431;47.966;10.268;2023-03-14T00:47:04;8.40;99.90
6788;DHT22;3431;47.966;10.268;2023-03-14T00:47:26;8.40;99.90
6788;DHT22;3431;47.966;10.268;2023-03-14T00:47:48;8.40;99.90
6788;DHT22;3431;47.966;10.268;2023-03-14T00:48:10;8.30;99.90
6788;DHT22;3431;47.966;10.268;2023-03-14T00:48:32;8.40;99.90
6788;DHT22;3431;47.966;10.268;2023-03-14T00:48:55;8.40;99.90
6788;DHT22;3431;47.966;10.268;2023-03-14T00:49:19;8.40;99.90
6788;DHT22;3431;47.966;10.268;2023-03-14T00:49:41;8.30;99.90
6788;DHT22;3431;47.966;10.268;2023-03-14T00:50:05;8.40;99.90
6788;DHT22;3431;47.966;10.268;2023-03-14T00:50:27;8.40;99.90
6788;DHT22;3431;47.966;10.268;2023-03-14T00:50:50;8.40;99.90
6788;DHT22;3431;47.966;10.268;2023-03-14T00:51:11;8.30;99.90
6788;DHT22;3431;47.966;10.268;2023-03-14T00:51:38;8.30;99.90
6788;DHT22;3431;47.966;10.268;2023-03-14T00:51:59;8.30;99.90
6788;DHT22;3431;47.966;10.268;2023-03-14T00:52:22;8.30;99.90
6788;DHT22;3431;47.966;10.268;2023-03-14T00:52:43;8.30;99.90
6788;DHT22;3431;47.966;10.268;2023-03-14T00:53:05;8.30;99.90
6788;DHT22;3431;47.966;10.268;2023-03-14T00:53:27;8.30;99.90
6788;DHT22;3431;47.966;10.268;2023-03-14T00:53:48;8.30;99.90
6788;DHT22;3431;47.966;10.268;2023-03-14T00:54:11;8.30;99.90
6788;DHT22;3431;47.966;10.268;2023-03-14T00:54:33;8.20;99.90
6788;DHT22;3431;47.966;10.268;2023-03-14T00:54:54;8.30;99.90
6788;DHT22;3431;47.966;10.268;2023-03-14T00:55:16;8.20;99.90
6788;DHT22;3431;47.966;10.268;2023-03-14T00:55:40;8.30;99.90
6788;DHT22;3431;47.966;10.268;2023-03-14T00:56:03;8.20;99.90
6788;DHT22;3431;47.966;10.268;2023-03-14T00:56:24;8.20;99.90
6788;DHT22;3431;47.966;10.268;2023-03-14T00:56:46;8.20;99.90
6788;DHT22;3431;47.966;10.268;2023-03-14T00:57:08;8.20;99.90
6788;DHT22;3431;47.966;10.268;2023-03-14T00:57:30;8.20;99.90
6788;DHT22;3431;47.966;10.268;2023-03-14T00:57:52;8.20;99.90
6788;DHT22;3431;47.966;10.268;2023-03-14T00:58:16;8.20;99.90
6788;DHT22;3431;47.966;10.268;2023-03-14T00:58:38;8.20;99.90
6788;DHT22;3431;47.966;10.268;2023-03-14T00:59:01;8.20;99.90
6788;DHT22;3431;47.966;10.268;2023-03-14T00:59:22;8.20;99.90
6788;DHT22;3431;47.966;10.268;2023-03-14T00:59:44;8.20;99.90
6788;DHT22;3431;47.966;10.268;2023-03-14T01:00:06;8.20;99.90
6788;DHT22;3431;47.966;10.268;2023-03-14T01:00:32;8.20;99.90
6788;DHT22;3431;47.966;10.268;2023-03-14T01:00:54;8.20;99.90
6788;DHT22;3431;47.966;10.268;2023-03-14T01:01:17;8.20;99.90
6788;DHT22;3431;47.966;10.268;2023-03-14T01:01:40;8.20;99.90
6788;DHT22;3431;47.966;10.268;2023-03-14T01:02:03;8.20;99.90
6788;DHT22;3431;47.966;10.268;2023-03-14T01:02:25;8.10;99.90
6788;DHT22;3431;47.966;10.268;2023-03-14T01:02:46;8.10;99.90
6788;DHT22;3431;47.966;10.268;2023-03-14T01:03:09;8.10;99.90
6788;DHT22;3431;47.966;10.268;2023-03-14T01:03:31;8.10;99.90
6788;DHT22;3431;47.966;10.268;2023-03-14T01:03:54;8.10;99.90
6788;DHT22;3431;47.966;10.268;2023-03-14T01:04:15;8.10;99.90
6788;DHT22;3431;47.966;10.268;2023-03-14T01:04:38;8.10;99.90
6788;DHT22;3431;47.966;10.268;2023-03-14T01:05:04;8.10;99.90
6788;DHT22;3431;47.966;10.268;2023-03-14T01:05:26;8.10;99.90
6788;DHT22;3431;47.966;10.268;2023-03-14T01:05:48;8.10;99.90
6788;DHT22;3431;47.966;10.268;2023-03-14T01:06:12;8.00;99.90
6788;DHT22;3431;47.966;10.268;2023-03-14T01:06:37;8.00;99.90
6788;DHT22;3431;47.966;10.268;2023-03-14T01:06:58;8.00;99.90
6788;DHT22;3431;47.966;10.268;2023-03-14T01:07:20;8.00;99.90
6788;DHT22;3431;47.966;10.268;2023-03-14T01:07:42;8.00;99.90
6788;DHT22;3431;47.966;10.268;2023-03-14T01:08:05;8.00;99.90
6788;DHT22;3431;47.966;10.268;2023-03-14T01:08:28;8.00;99.90
6788;DHT22;3431;47.966;10.268;2023-03-14T01:08:50;8.00;99.90
6788;DHT22;3431;47.966;10.268;2023-03-14T01:09:12;7.80;99.90
6788;DHT22;3431;47.966;10.268;2023-03-14T01:09:36;7.90;99.90
6788;DHT22;3431;47.966;10.268;2023-03-14T01:09:57;7.90;99.90
6788;DHT22;3431;47.966;10.268;2023-03-14T01:10:19;7.90;99.90
6788;DHT22;3431;47.966;10.268;2023-03-14T01:10:41;7.90;99.90
6788;DHT22;3431;47.966;10.268;2023-03-14T01:11:06;7.90;99.90
6788;DHT22;3431;47.966;10.268;2023-03-14T01:11:30;7.80;99.90
6788;DHT22;3431;47.966;10.268;2023-03-14T01:11:53;7.80;99.90
6788;DHT22;3431;47.966;10.268;2023-03-14T01:12:14;7.80;99.90
6788;DHT22;3431;47.966;10.268;2023-03-14T01:12:37;7.80;99.90
6788;DHT22;3431;47.966;10.268;2023-03-14T01:12:58;7.80;99.90
6788;DHT22;3431;47.966;10.268;2023-03-14T01:13:20;7.80;99.90
6788;DHT22;3431;47.966;10.268;2023-03-14T01:13:42;7.80;99.90
6788;DHT22;3431;47.966;10.268;2023-03-14T01:14:05;7.80;99.90
6788;DHT22;3431;47.966;10.268;2023-03-14T01:14:26;7.80;99.90
6788;DHT22;3431;47.966;10.268;2023-03-14T01:14:48;8.10;99.90
6788;DHT22;3431;47.966;10.268;2023-03-14T01:15:10;7.80;99.90
6788;DHT22;3431;47.966;10.268;2023-03-14T01:15:32;7.80;99.90
6788;DHT22;3431;47.966;10.268;2023-03-14T01:15:54;7.70;99.90
6788;DHT22;3431;47.966;10.268;2023-03-14T01:16:18;7.70;99.90
6788;DHT22;3431;47.966;10.268;2023-03-14T01:16:40;7.70;99.90
6788;DHT22;3431;47.966;10.268;2023-03-14T01:17:01;7.70;99.90
6788;DHT22;3431;47.966;10.268;2023-03-14T01:17:24;7.70;99.90
6788;DHT22;3431;47.966;10.268;2023-03-14T01:17:46;7.70;99.90
6788;DHT22;3431;47.966;10.268;2023-03-14T01:18:07;7.70;99.90
6788;DHT22;3431;47.966;10.268;2023-03-14T01:18:29;7.70;99.90
6788;DHT22;3431;47.966;10.268;2023-03-14T01:18:51;7.70;99.90
6788;DHT22;3431;47.966;10.268;2023-03-14T01:19:13;7.70;99.90
6788;DHT22;3431;47.966;10.268;2023-03-14T01:19:35;7.70;99.90
6788;DHT22;3431;47.966;10.268;2023-03-14T01:19:58;7.70;99.90
6788;DHT22;3431;47.966;10.268;2023-03-14T01:20:20;7.60;99.90
6788;DHT22;3431;47.966;10.268;2023-03-14T01:20:43;7.60;99.90
6788;DHT22;3431;47.966;10.268;2023-03-14T01:21:12;7.70;99.90
6788;DHT22;3431;47.966;10.268;2023-03-14T01:21:35;7.60;99.90
6788;DHT22;3431;47.966;10.268;2023-03-14T01:21:57;7.60;99.90
6788;DHT22;3431;47.966;10.268;2023-03-14T01:22:19;7.60;99.90
6788;DHT22;3431;47.966;10.268;2023-03-14T01:22:42;7.60;99.90
6788;DHT22;3431;47.966;10.268;2023-03-14T01:23:04;7.60;99.90
6788;DHT22;3431;47.966;10.268;2023-03-14T01:23:26;7.60;99.90
6788;DHT22;3431;47.966;10.268;2023-03-14T01:23:51;7.60;99.90
6788;DHT22;3431;47.966;10.268;2023-03-14T01:24:14;7.60;99.90
6788;DHT22;3431;47.966;10.268;2023-03-14T01:24:36;7.60;99.90
6788;DHT22;3431;47.966;10.268;2023-03-14T01:24:59;7.60;99.90
6788;DHT22;3431;47.966;10.268;2023-03-14T01:25:20;7.60;99.90
6788;DHT22;3431;47.966;10.268;2023-03-14T01:25:42;7.60;99.90
6788;DHT22;3431;47.966;10.268;2023-03-14T01:26:04;7.60;99.90
6788;DHT22;3431;47.966;10.268;2023-03-14T01:26:31;7.60;99.90
6788;DHT22;3431;47.966;10.268;2023-03-14T01:26:54;7.50;99.90
6788;DHT22;3431;47.966;10.268;2023-03-14T01:27:18;7.60;99.90
6788;DHT22;3431;47.966;10.268;2023-03-14T01:27:40;7.50;99.90
6788;DHT22;3431;47.966;10.268;2023-03-14T01:28:03;7.50;99.90
6788;DHT22;3431;47.966;10.268;2023-03-14T01:28:25;7.60;99.90
6788;DHT22;3431;47.966;10.268;2023-03-14T01:28:48;7.60;99.90
6788;DHT22;3431;47.966;10.268;2023-03-14T01:29:10;7.60;99.90
6788;DHT22;3431;47.966;10.268;2023-03-14T01:29:34;7.50;99.90
6788;DHT22;3431;47.966;10.268;2023-03-14T01:29:55;7.50;99.90
6788;DHT22;3431;47.966;10.268;2023-03-14T01:30:17;7.50;99.90
6788;DHT22;3431;47.966;10.268;2023-03-14T01:30:39;7.50;99.90
6788;DHT22;3431;47.966;10.268;2023-03-14T01:31:02;7.50;99.90
6788;DHT22;3431;47.966;10.268;2023-03-14T01:31:25;7.50;99.90
6788;DHT22;3431;47.966;10.268;2023-03-14T01:31:47;7.50;99.90
6788;DHT22;3431;47.966;10.268;2023-03-14T01:32:09;7.50;99.90
6788;DHT22;3431;47.966;10.268;2023-03-14T01:32:31;7.50;99.90
6788;DHT22;3431;47.966;10.268;2023-03-14T01:32:53;7.50;99.90
6788;DHT22;3431;47.966;10.268;2023-03-14T01:33:14;7.50;99.90
6788;DHT22;3431;47.966;10.268;2023-03-14T01:33:39;7.50;99.90
6788;DHT22;3431;47.966;10.268;2023-03-14T01:34:00;7.50;99.90
6788;DHT22;3431;47.966;10.268;2023-03-14T01:34:23;7.50;99.90
6788;DHT22;3431;47.966;10.268;2023-03-14T01:34:45;7.50;99.90
6788;DHT22;3431;47.966;10.268;2023-03-14T01:35:08;7.50;99.90
6788;DHT22;3431;47.966;10.268;2023-03-14T01:35:30;7.50;99.90
6788;DHT22;3431;47.966;10.268;2023-03-14T01:35:52;7.50;99.90
6788;DHT22;3431;47.966;10.268;2023-03-14T01:36:15;7.50;99.90
6788;DHT22;3431;47.966;10.268;2023-03-14T01:36:38;7.50;99.90
6788;DHT22;3431;47.966;10.268;2023-03-14T01:36:59;7.50;99.90
6788;DHT22;3431;47.966;10.268;2023-03-14T01:37:21;7.60;99.90
6788;DHT22;3431;47.966;10.268;2023-03-14T01:37:44;7.50;99.90
6788;DHT22;3431;47.966;10.268;2023-03-14T01:38:11;7.60;99.90
6788;DHT22;3431;47.966;10.268;2023-03-14T01:38:33;7.60;99.90
6788;DHT22;3431;47.966;10.268;2023-03-14T01:38:55;7.60;99.90
6788;DHT22;3431;47.966;10.268;2023-03-14T01:39:18;7.60;99.90
6788;DHT22;3431;47.966;10.268;2023-03-14T01:39:40;7.60;99.90
6788;DHT22;3431;47.966;10.268;2023-03-14T01:40:02;7.60;99.90
6788;DHT22;3431;47.966;10.268;2023-03-14T01:40:25;7.60;99.90
6788;DHT22;3431;47.966;10.268;2023-03-14T01:40:47;7.60;99.90
6788;DHT22;3431;47.966;10.268;2023-03-14T01:41:13;7.60;99.90
6788;DHT22;3431;47.966;10.268;2023-03-14T01:41:35;7.60;99.90
6788;DHT22;3431;47.966;10.268;2023-03-14T01:41:57;7.60;99.90
6788;DHT22;3431;47.966;10.268;2023-03-14T01:42:20;7.60;99.90
6788;DHT22;3431;47.966;10.268;2023-03-14T01:42:45;7.60;99.90
6788;DHT22;3431;47.966;10.268;2023-03-14T01:43:14;7.60;99.90
6788;DHT22;3431;47.966;10.268;2023-03-14T01:43:36;7.60;99.90
6788;DHT22;3431;47.966;10.268;2023-03-14T01:43:58;7.70;99.90
6788;DHT22;3431;47.966;10.268;2023-03-14T01:44:20;7.70;99.90
6788;DHT22;3431;47.966;10.268;2023-03-14T01:44:49;7.70;99.90
6788;DHT22;3431;47.966;10.268;2023-03-14T01:46:19;7.70;99.90
6788;DHT22;3431;47.966;10.268;2023-03-14T01:46:42;7.70;99.90
6788;DHT22;3431;47.966;10.268;2023-03-14T01:47:06;7.70;99.90
6788;DHT22;3431;47.966;10.268;2023-03-14T01:47:28;7.70;99.90
6788;DHT22;3431;47.966;10.268;2023-03-14T01:47:50;7.80;99.90
6788;DHT22;3431;47.966;10.268;2023-03-14T01:48:12;7.70;99.90
6788;DHT22;3431;47.966;10.268;2023-03-14T01:48:37;7.80;99.90
6788;DHT22;3431;47.966;10.268;2023-03-14T01:49:06;7.80;99.90
6788;DHT22;3431;47.966;10.268;2023-03-14T01:49:32;7.80;99.90
6788;DHT22;3431;47.966;10.268;2023-03-14T01:50:04;7.80;99.90
6788;DHT22;3431;47.966;10.268;2023-03-14T01:50:30;7.80;99.90
6788;DHT22;3431;47.966;10.268;2023-03-14T01:50:51;7.80;99.90
6788;DHT22;3431;47.966;10.268;2023-03-14T01:51:16;7.80;99.90
6788;DHT22;3431;47.966;10.268;2023-03-14T01:51:44;7.80;99.90
6788;DHT22;3431;47.966;10.268;2023-03-14T01:52:11;7.80;99.90
6788;DHT22;3431;47.966;10.268;2023-03-14T01:52:36;7.80;99.90
6788;DHT22;3431;47.966;10.268;2023-03-14T01:53:03;7.80;99.90
6788;DHT22;3431;47.966;10.268;2023-03-14T01:53:25;7.80;99.90
6788;DHT22;3431;47.966;10.268;2023-03-14T01:53:48;7.80;99.90
6788;DHT22;3431;47.966;10.268;2023-03-14T01:54:15;7.80;99.90
6788;DHT22;3431;47.966;10.268;2023-03-14T01:54:39;7.80;99.90
6788;DHT22;3431;47.966;10.268;2023-03-14T01:55:05;7.80;99.90
6788;DHT22;3431;47.966;10.268;2023-03-14T01:55:27;7.90;99.90
6788;DHT22;3431;47.966;10.268;2023-03-14T01:55:50;7.80;99.90
6788;DHT22;3431;47.966;10.268;2023-03-14T01:56:15;7.80;99.90
6788;DHT22;3431;47.966;10.268;2023-03-14T01:56:39;7.90;99.90
6788;DHT22;3431;47.966;10.268;2023-03-14T01:57:06;7.80;99.90
6788;DHT22;3431;47.966;10.268;2023-03-14T01:57:32;7.80;99.90
6788;DHT22;3431;47.966;10.268;2023-03-14T01:57:56;7.80;99.90
6788;DHT22;3431;47.966;10.268;2023-03-14T01:58:20;7.80;99.90
6788;DHT22;3431;47.966;10.268;2023-03-14T01:58:45;7.80;99.90
6788;DHT22;3431;47.966;10.268;2023-03-14T01:59:10;7.80;99.90
6788;DHT22;3431;47.966;10.268;2023-03-14T01:59:32;7.90;99.90
6788;DHT22;3431;47.966;10.268;2023-03-14T01:59:59;7.80;99.90
6788;DHT22;3431;47.966;10.268;2023-03-14T02:00:23;7.80;99.90
6788;DHT22;3431;47.966;10.268;2023-03-14T02:00:45;7.80;99.90
6788;DHT22;3431;47.966;10.268;2023-03-14T02:01:07;7.80;99.90
6788;DHT22;3431;47.966;10.268;2023-03-14T02:01:30;7.80;99.90
6788;DHT22;3431;47.966;10.268;2023-03-14T02:01:54;7.80;99.90
6788;DHT22;3431;47.966;10.268;2023-03-14T02:02:16;7.80;99.90
6788;DHT22;3431;47.966;10.268;2023-03-14T02:02:40;7.80;99.90
6788;DHT22;3431;47.966;10.268;2023-03-14T02:03:08;7.80;99.90
6788;DHT22;3431;47.966;10.268;2023-03-14T02:03:33;7.80;99.90
6788;DHT22;3431;47.966;10.268;2023-03-14T02:04:00;7.80;99.90
6788;DHT22;3431;47.966;10.268;2023-03-14T02:04:25;7.80;99.90
6788;DHT22;3431;47.966;10.268;2023-03-14T02:04:49;7.80;99.90
6788;DHT22;3431;47.966;10.268;2023-03-14T02:05:17;7.80;99.90
6788;DHT22;3431;47.966;10.268;2023-03-14T02:05:45;7.80;99.90
6788;DHT22;3431;47.966;10.268;2023-03-14T02:06:14;7.80;99.90
6788;DHT22;3431;47.966;10.268;2023-03-14T02:06:47;7.70;99.90
6788;DHT22;3431;47.966;10.268;2023-03-14T02:07:15;7.70;99.90
6788;DHT22;3431;47.966;10.268;2023-03-14T02:07:48;7.70;99.90
6788;DHT22;3431;47.966;10.268;2023-03-14T02:08:18;7.70;99.90
6788;DHT22;3431;47.966;10.268;2023-03-14T02:08:48;7.70;99.90
6788;DHT22;3431;47.966;10.268;2023-03-14T02:09:14;7.70;99.90
6788;DHT22;3431;47.966;10.268;2023-03-14T02:09:37;7.70;99.90
6788;DHT22;3431;47.966;10.268;2023-03-14T02:10:02;7.70;99.90
6788;DHT22;3431;47.966;10.268;2023-03-14T02:10:29;7.60;99.90
6788;DHT22;3431;47.966;10.268;2023-03-14T02:10:53;7.70;99.90
6788;DHT22;3431;47.966;10.268;2023-03-14T02:11:29;7.60;99.90
6788;DHT22;3431;47.966;10.268;2023-03-14T02:12:13;7.60;99.90
6788;DHT22;3431;47.966;10.268;2023-03-14T02:12:42;7.50;99.90
6788;DHT22;3431;47.966;10.268;2023-03-14T02:13:23;7.50;99.90
6788;DHT22;3431;47.966;10.268;2023-03-14T02:13:56;7.50;99.90
6788;DHT22;3431;47.966;10.268;2023-03-14T02:14:48;7.50;99.90
6788;DHT22;3431;47.966;10.268;2023-03-14T02:15:18;7.50;99.90
6788;DHT22;3431;47.966;10.268;2023-03-14T02:16:00;7.50;99.90
6788;DHT22;3431;47.966;10.268;2023-03-14T02:16:40;7.50;99.90
6788;DHT22;3431;47.966;10.268;2023-03-14T02:17:28;7.50;99.90
6788;DHT22;3431;47.966;10.268;2023-03-14T02:18:11;7.50;99.90
6788;DHT22;3431;47.966;10.268;2023-03-14T02:18:53;7.40;99.90
6788;DHT22;3431;47.966;10.268;2023-03-14T02:19:48;7.50;99.90
6788;DHT22;3431;47.966;10.268;2023-03-14T02:20:34;7.50;99.90
6788;DHT22;3431;47.966;10.268;2023-03-14T02:21:02;7.50;99.90
6788;DHT22;3431;47.966;10.268;2023-03-14T02:21:37;7.50;99.90
6788;DHT22;3431;47.966;10.268;2023-03-14T02:22:05;7.50;99.90
6788;DHT22;3431;47.966;10.268;2023-03-14T02:22:35;7.50;99.90
6788;DHT22;3431;47.966;10.268;2023-03-14T02:23:02;7.50;99.90
6788;DHT22;3431;47.966;10.268;2023-03-14T02:23:33;7.40;99.90
6788;DHT22;3431;47.966;10.268;2023-03-14T02:24:03;7.50;99.90
6788;DHT22;3431;47.966;10.268;2023-03-14T02:24:38;7.50;99.90
6788;DHT22;3431;47.966;10.268;2023-03-14T02:25:07;7.50;99.90
6788;DHT22;3431;47.966;10.268;2023-03-14T02:25:38;7.50;99.90
6788;DHT22;3431;47.966;10.268;2023-03-14T02:26:03;7.50;99.90
6788;DHT22;3431;47.966;10.268;2023-03-14T02:26:30;7.50;99.90
6788;DHT22;3431;47.966;10.268;2023-03-14T02:27:12;7.50;99.90
6788;DHT22;3431;47.966;10.268;2023-03-14T02:27:38;7.50;99.90
6788;DHT22;3431;47.966;10.268;2023-03-14T02:28:00;7.50;99.90
6788;DHT22;3431;47.966;10.268;2023-03-14T02:28:23;7.50;99.90
6788;DHT22;3431;47.966;10.268;2023-03-14T02:28:49;7.50;99.90
6788;DHT22;3431;47.966;10.268;2023-03-14T02:29:11;7.50;99.90
6788;DHT22;3431;47.966;10.268;2023-03-14T02:29:34;7.50;99.90
6788;DHT22;3431;47.966;10.268;2023-03-14T02:30:01;7.50;99.90
6788;DHT22;3431;47.966;10.268;2023-03-14T02:30:25;7.50;99.90
6788;DHT22;3431;47.966;10.268;2023-03-14T02:30:47;7.40;99.90
6788;DHT22;3431;47.966;10.268;2023-03-14T02:31:10;7.50;99.90
6788;DHT22;3431;47.966;10.268;2023-03-14T02:31:32;7.50;99.90
6788;DHT22;3431;47.966;10.268;2023-03-14T02:31:55;7.50;99.90
6788;DHT22;3431;47.966;10.268;2023-03-14T02:32:17;7.50;99.90
6788;DHT22;3431;47.966;10.268;2023-03-14T02:32:41;7.50;99.90
6788;DHT22;3431;47.966;10.268;2023-03-14T02:33:07;7.50;99.90
6788;DHT22;3431;47.966;10.268;2023-03-14T02:33:30;7.50;99.90
6788;DHT22;3431;47.966;10.268;2023-03-14T02:33:52;7.50;99.90
6788;DHT22;3431;47.966;10.268;2023-03-14T02:34:14;7.50;99.90
6788;DHT22;3431;47.966;10.268;2023-03-14T02:34:36;7.50;99.90
6788;DHT22;3431;47.966;10.268;2023-03-14T02:35:00;7.50;99.90
6788;DHT22;3431;47.966;10.268;2023-03-14T02:35:26;7.50;99.90
6788;DHT22;3431;47.966;10.268;2023-03-14T02:35:51;7.50;99.90
6788;DHT22;3431;47.966;10.268;2023-03-14T02:36:15;7.50;99.90
6788;DHT22;3431;47.966;10.268;2023-03-14T02:36:38;7.50;99.90
6788;DHT22;3431;47.966;10.268;2023-03-14T02:37:01;7.50;99.90
6788;DHT22;3431;47.966;10.268;2023-03-14T02:37:27;7.50;99.90